Elandra Spruce — V7JM5 — position and weather

sailwx.info

Track history (hours):
 
Tides and Currents Weather Stations Pressure Air Temp Water Temp Dewpoint Dewpoint Depression Visibility Wind Speed Wind Dir Waves Ship Positions

Elandra Spruce

Last reported at 2017-Apr-26 00:36 UTC. Time now 2017-Apr-27 18:55 UTC.
Position N 36°58' E 007°00'.

Length 183 m; draft 8.7 m.

Type: Tanker. MMSI: 538006719.

Date/timePositionNaut miles runAvg speedWind from/ knotsBaromVisibWave heightAir tempDewpointWater temp
2017-Apr-26 00:36N 36°58' E 007°00'8 6.6
2017-Apr-25 23:27N 37°05' E 006°56'0 0.5
2017-Apr-25 22:40N 37°05' E 006°56'0 0.9
2017-Apr-25 22:27N 37°05' E 006°56'1 0.3
2017-Apr-25 18:56N 37°05' E 006°54'2 0.7
2017-Apr-25 15:55N 37°05' E 006°57'2 0.7
2017-Apr-25 13:38N 37°03' E 006°58'0 0.8
2017-Apr-25 13:30N 37°04' E 006°58'1 0.6
2017-Apr-25 12:25N 37°04' E 006°57'1 0.2
2017-Apr-25 07:45N 37°05' E 006°57'1 0.4
2017-Apr-25 06:36N 37°05' E 006°57'0 1.4
2017-Apr-25 06:31N 37°05' E 006°57'2 2.9
2017-Apr-25 05:54N 37°03' E 006°57'0 0.4
2017-Apr-25 04:43N 37°03' E 006°57'0 0.7
2017-Apr-25 04:30N 37°04' E 006°57'1 1.1
2017-Apr-25 04:00N 37°04' E 006°57'2 4.3
2017-Apr-25 03:31N 37°03' E 006°55'4 8.0
2017-Apr-25 03:00N 37°00' E 006°51'611.3
2017-Apr-25 02:31N 37°03' E 006°45'611.9
2017-Apr-25 02:00N 37°06' E 006°39'611.9
2017-Apr-25 01:30N 37°09' E 006°32'611.7
2017-Apr-25 01:00N 37°12' E 006°26'711.8
2017-Apr-25 00:23N 37°12' E 006°16'512.1
2017-Apr-25 00:00N 37°12' E 006°11'612.3
2017-Apr-24 23:30N 37°12' E 006°03'612.7
2017-Apr-24 23:01N 37°12' E 005°55'612.8
2017-Apr-24 22:30N 37°12' E 005°47'712.7
2017-Apr-24 21:58N 37°12' E 005°38'612.8
2017-Apr-24 21:30N 37°12' E 005°31'812.8
2017-Apr-24 20:51N 37°12' E 005°20'412.6
2017-Apr-24 20:30N 37°12' E 005°15'612.9
2017-Apr-24 20:00N 37°12' E 005°07'713.0
2017-Apr-24 19:29N 37°12' E 004°58'613.0
2017-Apr-24 19:00N 37°12' E 004°50'612.8
2017-Apr-24 18:31N 37°12' E 004°43'612.7
2017-Apr-24 18:00N 37°12' E 004°35'612.5
2017-Apr-24 17:30N 37°13' E 004°27'612.2
2017-Apr-24 16:59N 37°12' E 004°19'1212.0
2017-Apr-24 15:59N 37°12' E 004°04'612.1
2017-Apr-24 15:31N 37°12' E 003°56'612.0
2017-Apr-24 15:00N 37°11' E 003°49'612.0
2017-Apr-24 14:30N 37°11' E 003°41'1212.2
2017-Apr-24 13:30N 37°09' E 003°26'612.3
2017-Apr-24 13:00N 37°08' E 003°18'612.3
2017-Apr-24 12:30N 37°08' E 003°11'612.4
2017-Apr-24 12:00N 37°07' E 003°03'612.8
2017-Apr-24 11:30N 37°06' E 002°55'813.0
2017-Apr-24 10:55N 37°05' E 002°46'812.9
2017-Apr-24 10:18N 37°05' E 002°36'413.1
2017-Apr-24 10:00N 37°04' E 002°31'713.1
2017-Apr-24 09:30N 37°03' E 002°23'612.9
2017-Apr-24 09:00N 37°03' E 002°15'612.8
2017-Apr-24 08:30N 37°02' E 002°07'613.0
2017-Apr-24 08:00N 37°01' E 001°59'813.2
2017-Apr-24 07:23N 37°00' E 001°48'513.0
2017-Apr-24 07:00N 36°59' E 001°42'613.0
2017-Apr-24 06:30N 36°59' E 001°34'1213.1
2017-Apr-24 05:37N 36°57' E 001°20'313.3
2017-Apr-24 05:22N 36°57' E 001°16'513.2
2017-Apr-24 05:00N 36°56' E 001°10'713.6
2017-Apr-24 04:30N 36°55' E 001°01'813.8
2017-Apr-24 03:55N 36°54' E 000°51'713.8
2017-Apr-24 03:24N 36°54' E 000°42'513.7
2017-Apr-24 03:00N 36°53' E 000°36'1413.5
2017-Apr-24 01:56N 36°49' E 000°18'613.2
2017-Apr-24 01:29N 36°49' E 000°11'613.1
2017-Apr-24 01:01N 36°47' E 000°03'1113.3
2017-Apr-24 00:12N 36°44' W 000°10'413.4
2017-Apr-23 23:54N 36°44' W 000°15'613.2
2017-Apr-23 23:26N 36°42' W 000°22'513.1
2017-Apr-23 23:00N 36°41' W 000°29'713.1
2017-Apr-23 22:27N 36°39' W 000°38'713.2
2017-Apr-23 21:55N 36°38' W 000°46'20112.6
2017-Apr-23 05:57N 36°03' W 004°52'611.5
2017-Apr-23 05:26N 36°02' W 004°59'511.7
2017-Apr-23 05:00N 36°01' W 005°05'611.5
2017-Apr-23 04:31N 36°00' W 005°12'611.5
2017-Apr-23 04:00N 35°59' W 005°19'714.0
2017-Apr-23 03:30N 35°57' W 005°27'714.1
2017-Apr-23 03:00N 35°55' W 005°36'714.1
2017-Apr-23 02:30N 35°54' W 005°44'913.7
2017-Apr-23 01:51N 35°54' W 005°55'513.1
2017-Apr-23 01:30N 35°53' W 006°01'62113.0
2017-Apr-21 01:50N 28°42' W 014°50'513.1
2017-Apr-21 01:29N 28°38' W 014°53'612.9
2017-Apr-21 01:00N 28°34' W 014°58'712.9
2017-Apr-21 00:30N 28°29' W 015°03'713.2
2017-Apr-21 00:00N 28°24' W 015°08'713.3
2017-Apr-20 23:30N 28°19' W 015°13'713.2
2017-Apr-20 23:00N 28°14' W 015°18'611.8
2017-Apr-20 22:30N 28°10' W 015°23'1 1.9
2017-Apr-20 21:50N 28°09' W 015°23'0 0.0
2017-Apr-20 21:23N 28°09' W 015°23'0 0.0
2017-Apr-20 20:53N 28°09' W 015°23'0 0.0
2017-Apr-20 20:23N 28°09' W 015°23'0 0.0
2017-Apr-20 19:53N 28°09' W 015°23'0 0.0
2017-Apr-20 19:08N 28°09' W 015°23'0 0.0
2017-Apr-20 18:53N 28°09' W 015°23'0 0.0
2017-Apr-20 18:26N 28°09' W 015°23'0 0.0
2017-Apr-20 17:56N 28°09' W 015°23'0 0.0
2017-Apr-20 17:26N 28°09' W 015°23'0 0.0
2017-Apr-20 16:56N 28°09' W 015°23'0 0.1
2017-Apr-20 16:26N 28°09' W 015°23'0 0.3
2017-Apr-20 16:00N 28°09' W 015°23'2 3.7
2017-Apr-20 15:30N 28°08' W 015°23'1 3.0
2017-Apr-20 15:00N 28°06' W 015°22'4 7.5
2017-Apr-20 14:30N 28°04' W 015°19'1110.5
2017-Apr-20 13:30N 27°55' W 015°12'611.1
2017-Apr-20 13:00N 27°50' W 015°14'510.6
2017-Apr-20 12:30N 27°44' W 015°16'611.1
2017-Apr-20 12:00N 27°39' W 015°17'611.5
2017-Apr-20 11:30N 27°33' W 015°17'711.4
2017-Apr-20 10:53N 27°26' W 015°16'511.6
2017-Apr-20 10:29N 27°22' W 015°15'48311.4
2017-Apr-18 16:08N 19°45' W 018°06'211.0
2017-Apr-18 15:59N 19°43' W 018°06'1610.9
2017-Apr-18 14:34N 19°27' W 018°07'610.9
2017-Apr-18 14:00N 19°21' W 018°08'511.0
2017-Apr-18 13:30N 19°16' W 018°08'810.8
2017-Apr-18 12:48N 19°08' W 018°08'310.6
2017-Apr-18 12:30N 19°05' W 018°08'510.7
2017-Apr-18 12:00N 18°60' W 018°08'1211.1
2017-Apr-18 10:58N 18°48' W 018°09'20111.4
2017-Apr-17 17:21N 15°27' W 018°17'29911.0
2017-Apr-16 14:07N 10°36' W 017°06'711.0
2017-Apr-16 13:31N 10°31' W 017°01'611.5
2017-Apr-16 13:00N 10°27' W 016°57'611.4
2017-Apr-16 12:31N 10°22' W 016°54'611.5
2017-Apr-16 12:01N 10°18' W 016°50'611.6
2017-Apr-16 11:30N 10°14' W 016°46'711.8
2017-Apr-16 10:57N 10°09' W 016°42'511.8
2017-Apr-16 10:30N 10°05' W 016°38'611.9
2017-Apr-16 09:59N 10°00' W 016°34'611.7
2017-Apr-16 09:30N 09°56' W 016°30'612.0
2017-Apr-16 09:00N 09°51' W 016°27'712.1
2017-Apr-16 08:27N 09°46' W 016°22'511.8
2017-Apr-16 08:01N 09°42' W 016°19'611.5
2017-Apr-16 07:31N 09°38' W 016°15'611.3
2017-Apr-16 07:01N 09°34' W 016°11'611.6
2017-Apr-16 06:31N 09°29' W 016°07'611.8
2017-Apr-16 06:01N 09°25' W 016°03'611.7
2017-Apr-16 05:31N 09°20' W 015°60'611.5
2017-Apr-16 05:00N 09°16' W 015°56'611.4
2017-Apr-16 04:31N 09°12' W 015°52'611.2
2017-Apr-16 04:01N 09°07' W 015°48'611.2
2017-Apr-16 03:30N 09°03' W 015°45'611.1
2017-Apr-16 03:00N 08°59' W 015°41'611.2
2017-Apr-16 02:31N 08°54' W 015°38'711.3
2017-Apr-16 01:54N 08°49' W 015°33'411.4
2017-Apr-16 01:31N 08°46' W 015°30'811.4
2017-Apr-16 00:49N 08°40' W 015°25'  
Track history (hours):
 
Tides and Currents Weather Stations Pressure Air Temp Water Temp Dewpoint Dewpoint Depression Visibility Wind Speed Wind Dir Waves Ship Positions

Elandra Spruce

Last reported at 2017-Apr-26 00:36 UTC. Time now 2017-Apr-27 18:55 UTC.
Position N 36°58' E 007°00'.

Length 183 m; draft 8.7 m.

Type: Tanker. MMSI: 538006719.

Date/timePositionNaut miles runAvg speedWind from/ knotsBaromVisibWave heightAir tempDewpointWater temp
2017-Apr-26 00:36N 36°58' E 007°00'8 6.6
2017-Apr-25 23:27N 37°05' E 006°56'0 0.5
2017-Apr-25 22:40N 37°05' E 006°56'0 0.9
2017-Apr-25 22:27N 37°05' E 006°56'1 0.3
2017-Apr-25 18:56N 37°05' E 006°54'2 0.7
2017-Apr-25 15:55N 37°05' E 006°57'2 0.7
2017-Apr-25 13:38N 37°03' E 006°58'0 0.8
2017-Apr-25 13:30N 37°04' E 006°58'1 0.6
2017-Apr-25 12:25N 37°04' E 006°57'1 0.2
2017-Apr-25 07:45N 37°05' E 006°57'1 0.4
2017-Apr-25 06:36N 37°05' E 006°57'0 1.4
2017-Apr-25 06:31N 37°05' E 006°57'2 2.9
2017-Apr-25 05:54N 37°03' E 006°57'0 0.4
2017-Apr-25 04:43N 37°03' E 006°57'0 0.7
2017-Apr-25 04:30N 37°04' E 006°57'1 1.1
2017-Apr-25 04:00N 37°04' E 006°57'2 4.3
2017-Apr-25 03:31N 37°03' E 006°55'4 8.0
2017-Apr-25 03:00N 37°00' E 006°51'611.3
2017-Apr-25 02:31N 37°03' E 006°45'611.9
2017-Apr-25 02:00N 37°06' E 006°39'611.9
2017-Apr-25 01:30N 37°09' E 006°32'611.7
2017-Apr-25 01:00N 37°12' E 006°26'711.8
2017-Apr-25 00:23N 37°12' E 006°16'512.1
2017-Apr-25 00:00N 37°12' E 006°11'612.3
2017-Apr-24 23:30N 37°12' E 006°03'612.7
2017-Apr-24 23:01N 37°12' E 005°55'612.8
2017-Apr-24 22:30N 37°12' E 005°47'712.7
2017-Apr-24 21:58N 37°12' E 005°38'612.8
2017-Apr-24 21:30N 37°12' E 005°31'812.8
2017-Apr-24 20:51N 37°12' E 005°20'412.6
2017-Apr-24 20:30N 37°12' E 005°15'612.9
2017-Apr-24 20:00N 37°12' E 005°07'713.0
2017-Apr-24 19:29N 37°12' E 004°58'613.0
2017-Apr-24 19:00N 37°12' E 004°50'612.8
2017-Apr-24 18:31N 37°12' E 004°43'612.7
2017-Apr-24 18:00N 37°12' E 004°35'612.5
2017-Apr-24 17:30N 37°13' E 004°27'612.2
2017-Apr-24 16:59N 37°12' E 004°19'1212.0
2017-Apr-24 15:59N 37°12' E 004°04'612.1
2017-Apr-24 15:31N 37°12' E 003°56'612.0
2017-Apr-24 15:00N 37°11' E 003°49'612.0
2017-Apr-24 14:30N 37°11' E 003°41'1212.2
2017-Apr-24 13:30N 37°09' E 003°26'612.3
2017-Apr-24 13:00N 37°08' E 003°18'612.3
2017-Apr-24 12:30N 37°08' E 003°11'612.4
2017-Apr-24 12:00N 37°07' E 003°03'612.8
2017-Apr-24 11:30N 37°06' E 002°55'813.0
2017-Apr-24 10:55N 37°05' E 002°46'812.9
2017-Apr-24 10:18N 37°05' E 002°36'413.1
2017-Apr-24 10:00N 37°04' E 002°31'713.1
2017-Apr-24 09:30N 37°03' E 002°23'612.9
2017-Apr-24 09:00N 37°03' E 002°15'612.8
2017-Apr-24 08:30N 37°02' E 002°07'613.0
2017-Apr-24 08:00N 37°01' E 001°59'813.2
2017-Apr-24 07:23N 37°00' E 001°48'513.0
2017-Apr-24 07:00N 36°59' E 001°42'613.0
2017-Apr-24 06:30N 36°59' E 001°34'1213.1
2017-Apr-24 05:37N 36°57' E 001°20'313.3
2017-Apr-24 05:22N 36°57' E 001°16'513.2
2017-Apr-24 05:00N 36°56' E 001°10'713.6
2017-Apr-24 04:30N 36°55' E 001°01'813.8
2017-Apr-24 03:55N 36°54' E 000°51'713.8
2017-Apr-24 03:24N 36°54' E 000°42'513.7
2017-Apr-24 03:00N 36°53' E 000°36'1413.5
2017-Apr-24 01:56N 36°49' E 000°18'613.2
2017-Apr-24 01:29N 36°49' E 000°11'613.1
2017-Apr-24 01:01N 36°47' E 000°03'1113.3
2017-Apr-24 00:12N 36°44' W 000°10'413.4
2017-Apr-23 23:54N 36°44' W 000°15'613.2
2017-Apr-23 23:26N 36°42' W 000°22'513.1
2017-Apr-23 23:00N 36°41' W 000°29'713.1
2017-Apr-23 22:27N 36°39' W 000°38'713.2
2017-Apr-23 21:55N 36°38' W 000°46'20112.6
2017-Apr-23 05:57N 36°03' W 004°52'611.5
2017-Apr-23 05:26N 36°02' W 004°59'511.7
2017-Apr-23 05:00N 36°01' W 005°05'611.5
2017-Apr-23 04:31N 36°00' W 005°12'611.5
2017-Apr-23 04:00N 35°59' W 005°19'714.0
2017-Apr-23 03:30N 35°57' W 005°27'714.1
2017-Apr-23 03:00N 35°55' W 005°36'714.1
2017-Apr-23 02:30N 35°54' W 005°44'913.7
2017-Apr-23 01:51N 35°54' W 005°55'513.1
2017-Apr-23 01:30N 35°53' W 006°01'62113.0
2017-Apr-21 01:50N 28°42' W 014°50'513.1
2017-Apr-21 01:29N 28°38' W 014°53'612.9
2017-Apr-21 01:00N 28°34' W 014°58'712.9
2017-Apr-21 00:30N 28°29' W 015°03'713.2
2017-Apr-21 00:00N 28°24' W 015°08'713.3
2017-Apr-20 23:30N 28°19' W 015°13'713.2
2017-Apr-20 23:00N 28°14' W 015°18'611.8
2017-Apr-20 22:30N 28°10' W 015°23'1 1.9
2017-Apr-20 21:50N 28°09' W 015°23'0 0.0
2017-Apr-20 21:23N 28°09' W 015°23'0 0.0
2017-Apr-20 20:53N 28°09' W 015°23'0 0.0
2017-Apr-20 20:23N 28°09' W 015°23'0 0.0
2017-Apr-20 19:53N 28°09' W 015°23'0 0.0
2017-Apr-20 19:08N 28°09' W 015°23'0 0.0
2017-Apr-20 18:53N 28°09' W 015°23'0 0.0
2017-Apr-20 18:26N 28°09' W 015°23'0 0.0
2017-Apr-20 17:56N 28°09' W 015°23'0 0.0
2017-Apr-20 17:26N 28°09' W 015°23'0 0.0
2017-Apr-20 16:56N 28°09' W 015°23'0 0.1
2017-Apr-20 16:26N 28°09' W 015°23'0 0.3
2017-Apr-20 16:00N 28°09' W 015°23'2 3.7
2017-Apr-20 15:30N 28°08' W 015°23'1 3.0
2017-Apr-20 15:00N 28°06' W 015°22'4 7.5
2017-Apr-20 14:30N 28°04' W 015°19'1110.5
2017-Apr-20 13:30N 27°55' W 015°12'611.1
2017-Apr-20 13:00N 27°50' W 015°14'510.6
2017-Apr-20 12:30N 27°44' W 015°16'611.1
2017-Apr-20 12:00N 27°39' W 015°17'611.5
2017-Apr-20 11:30N 27°33' W 015°17'711.4
2017-Apr-20 10:53N 27°26' W 015°16'511.6
2017-Apr-20 10:29N 27°22' W 015°15'48311.4
2017-Apr-18 16:08N 19°45' W 018°06'211.0
2017-Apr-18 15:59N 19°43' W 018°06'1610.9
2017-Apr-18 14:34N 19°27' W 018°07'610.9
2017-Apr-18 14:00N 19°21' W 018°08'511.0
2017-Apr-18 13:30N 19°16' W 018°08'810.8
2017-Apr-18 12:48N 19°08' W 018°08'310.6
2017-Apr-18 12:30N 19°05' W 018°08'510.7
2017-Apr-18 12:00N 18°60' W 018°08'1211.1
2017-Apr-18 10:58N 18°48' W 018°09'20111.4
2017-Apr-17 17:21N 15°27' W 018°17'29911.0
2017-Apr-16 14:07N 10°36' W 017°06'711.0
2017-Apr-16 13:31N 10°31' W 017°01'611.5
2017-Apr-16 13:00N 10°27' W 016°57'611.4
2017-Apr-16 12:31N 10°22' W 016°54'611.5
2017-Apr-16 12:01N 10°18' W 016°50'611.6
2017-Apr-16 11:30N 10°14' W 016°46'711.8
2017-Apr-16 10:57N 10°09' W 016°42'511.8
2017-Apr-16 10:30N 10°05' W 016°38'611.9
2017-Apr-16 09:59N 10°00' W 016°34'611.7
2017-Apr-16 09:30N 09°56' W 016°30'612.0
2017-Apr-16 09:00N 09°51' W 016°27'712.1
2017-Apr-16 08:27N 09°46' W 016°22'511.8
2017-Apr-16 08:01N 09°42' W 016°19'611.5
2017-Apr-16 07:31N 09°38' W 016°15'611.3
2017-Apr-16 07:01N 09°34' W 016°11'611.6
2017-Apr-16 06:31N 09°29' W 016°07'611.8
2017-Apr-16 06:01N 09°25' W 016°03'611.7
2017-Apr-16 05:31N 09°20' W 015°60'611.5
2017-Apr-16 05:00N 09°16' W 015°56'611.4
2017-Apr-16 04:31N 09°12' W 015°52'611.2
2017-Apr-16 04:01N 09°07' W 015°48'611.2
2017-Apr-16 03:30N 09°03' W 015°45'611.1
2017-Apr-16 03:00N 08°59' W 015°41'611.2
2017-Apr-16 02:31N 08°54' W 015°38'711.3
2017-Apr-16 01:54N 08°49' W 015°33'411.4
2017-Apr-16 01:31N 08°46' W 015°30'811.4
2017-Apr-16 00:49N 08°40' W 015°25'  

Dump ship's entire track history